createdAt,value
2022-12-29T00:00:26.210Z,100.00
2022-12-29T00:02:55.004Z,100.00
2022-12-29T00:05:23.483Z,100.00
2022-12-29T00:07:51.856Z,100.00
2022-12-29T00:10:20.372Z,100.00
2022-12-29T00:13:06.376Z,100.00
2022-12-29T00:15:41.373Z,100.00
2022-12-29T00:18:10.780Z,100.00
2022-12-29T00:20:57.649Z,100.00
2022-12-29T00:23:43.865Z,100.00
2022-12-29T00:26:34.424Z,100.00
2022-12-29T00:29:20.746Z,100.00
2022-12-29T00:32:08.962Z,100.00
2022-12-29T00:34:56.153Z,100.00
2022-12-29T00:37:44.749Z,100.00
2022-12-29T00:40:31.488Z,100.00
2022-12-29T00:43:17.812Z,100.00
2022-12-29T00:45:49.143Z,100.00
2022-12-29T00:48:39.795Z,100.00
2022-12-29T00:51:08.028Z,100.00
2022-12-29T00:53:36.792Z,100.00
2022-12-29T00:56:05.682Z,100.00
2022-12-29T00:58:34.157Z,100.00
2022-12-29T01:01:07.075Z,100.00
2022-12-29T01:03:39.779Z,100.00
2022-12-29T01:06:10.453Z,100.00
2022-12-29T01:08:40.110Z,100.00
2022-12-29T01:11:10.937Z,100.00
2022-12-29T01:13:39.949Z,100.00
2022-12-29T01:16:11.897Z,100.00
2022-12-29T01:18:41.821Z,100.00
2022-12-29T01:21:10.248Z,100.00
2022-12-29T01:23:38.984Z,100.00
2022-12-29T01:26:12.571Z,100.00
2022-12-29T01:28:42.457Z,100.00
2022-12-29T01:31:12.769Z,100.00
2022-12-29T01:33:43.380Z,100.00
2022-12-29T01:36:20.797Z,100.00
2022-12-29T01:38:53.727Z,100.00
2022-12-29T01:41:26.404Z,100.00
2022-12-29T01:43:57.369Z,100.00
2022-12-29T01:46:32.251Z,100.00
2022-12-29T01:49:30.276Z,100.00
2022-12-29T01:52:05.188Z,100.00
2022-12-29T01:54:40.846Z,100.00
2022-12-29T01:57:15.615Z,100.00
2022-12-29T01:59:54.539Z,100.00
2022-12-29T02:02:23.635Z,100.00
2022-12-29T02:05:04.426Z,100.00
2022-12-29T02:07:34.199Z,100.00
2022-12-29T02:10:05.203Z,100.00
2022-12-29T02:12:33.968Z,100.00
2022-12-29T02:15:08.261Z,100.00
2022-12-29T02:18:07.743Z,100.00
2022-12-29T02:21:34.723Z,100.00
2022-12-29T02:25:12.612Z,100.00
2022-12-29T02:28:50.961Z,100.00
2022-12-29T02:31:39.487Z,100.00
2022-12-29T02:34:27.164Z,100.00
2022-12-29T02:37:10.236Z,100.00
2022-12-29T02:39:52.635Z,100.00
2022-12-29T02:42:40.432Z,100.00
2022-12-29T02:45:26.303Z,100.00
2022-12-29T02:48:09.766Z,100.00
2022-12-29T02:50:45.396Z,100.00
2022-12-29T02:53:43.062Z,100.00
2022-12-29T02:56:13.655Z,100.00
2022-12-29T02:58:43.441Z,100.00
2022-12-29T03:01:39.172Z,100.00
2022-12-29T03:04:38.386Z,100.00
2022-12-29T03:07:19.398Z,100.00
2022-12-29T03:10:00.085Z,100.00
2022-12-29T03:12:59.050Z,100.00
2022-12-29T03:16:11.485Z,100.00
2022-12-29T03:18:51.841Z,100.00
2022-12-29T03:21:46.447Z,100.00
2022-12-29T03:24:23.158Z,100.00
2022-12-29T03:27:07.079Z,100.00
2022-12-29T03:29:48.317Z,100.00
2022-12-29T03:32:22.531Z,100.00
2022-12-29T03:34:52.474Z,100.00
2022-12-29T03:37:30.659Z,100.00
2022-12-29T03:40:00.931Z,100.00
2022-12-29T03:42:40.300Z,100.00
2022-12-29T03:45:12.068Z,100.00
2022-12-29T03:47:52.247Z,100.00
2022-12-29T03:50:42.450Z,100.00
2022-12-29T03:53:12.874Z,100.00
2022-12-29T03:55:41.984Z,100.00
2022-12-29T04:02:10.924Z,100.00
2022-12-29T04:04:39.934Z,100.00
2022-12-29T04:07:12.500Z,100.00
2022-12-29T04:09:46.712Z,100.00
2022-12-29T04:12:22.397Z,100.00
2022-12-29T04:14:52.472Z,100.00
2022-12-29T04:17:30.084Z,100.00
2022-12-29T04:20:31.768Z,100.00
2022-12-29T04:23:03.446Z,100.00
2022-12-29T04:25:38.817Z,100.00
2022-12-29T04:28:09.931Z,100.00
2022-12-29T04:30:51.055Z,100.00
2022-12-29T04:33:39.457Z,100.00
2022-12-29T04:36:12.606Z,100.00
2022-12-29T04:38:41.109Z,100.00
2022-12-29T04:41:48.979Z,100.00
2022-12-29T04:44:24.746Z,100.00
2022-12-29T04:47:12.027Z,100.00
2022-12-29T04:50:13.596Z,100.00
2022-12-29T04:52:53.632Z,100.00
2022-12-29T04:55:23.362Z,100.00
2022-12-29T04:57:55.045Z,100.00
2022-12-29T05:00:24.073Z,100.00
2022-12-29T05:02:53.906Z,100.00
2022-12-29T05:05:23.567Z,100.00
2022-12-29T05:07:56.081Z,100.00
2022-12-29T05:10:24.667Z,100.00
2022-12-29T05:12:56.865Z,100.00
2022-12-29T05:15:25.314Z,100.00
2022-12-29T05:17:53.840Z,100.00
2022-12-29T05:20:22.810Z,100.00
2022-12-29T05:22:51.243Z,100.00
2022-12-29T05:25:19.835Z,100.00
2022-12-29T05:28:01.510Z,100.00
2022-12-29T05:30:51.946Z,100.00
2022-12-29T05:33:21.770Z,100.00
2022-12-29T05:35:52.522Z,100.00
2022-12-29T05:38:22.285Z,100.00
2022-12-29T05:40:51.861Z,100.00
2022-12-29T05:43:56.705Z,100.00
2022-12-29T05:46:34.694Z,100.00
2022-12-29T05:49:21.296Z,100.00
2022-12-29T05:52:00.165Z,100.00
2022-12-29T05:54:30.651Z,100.00
2022-12-29T05:56:59.347Z,100.00
2022-12-29T05:59:29.448Z,100.00
2022-12-29T06:01:58.957Z,100.00
2022-12-29T06:04:27.625Z,100.00
2022-12-29T06:06:56.019Z,100.00
2022-12-29T06:09:34.120Z,100.00
2022-12-29T06:12:04.047Z,100.00
2022-12-29T06:14:33.990Z,100.00
2022-12-29T06:17:08.576Z,100.00
2022-12-29T06:19:37.195Z,100.00
2022-12-29T06:22:05.769Z,100.00
2022-12-29T06:24:36.415Z,100.00
2022-12-29T06:27:05.238Z,100.00
2022-12-29T06:29:37.300Z,100.00
2022-12-29T06:32:06.330Z,100.00
2022-12-29T06:34:35.895Z,100.00
2022-12-29T06:37:05.390Z,100.00
2022-12-29T06:39:33.866Z,100.00
2022-12-29T06:42:07.170Z,100.00
2022-12-29T06:45:10.499Z,100.00
2022-12-29T06:47:39.049Z,100.00
2022-12-29T06:50:08.590Z,100.00
2022-12-29T06:52:38.955Z,100.00
2022-12-29T06:55:08.295Z,100.00
2022-12-29T06:57:36.927Z,100.00
2022-12-29T07:00:06.760Z,100.00
2022-12-29T07:02:36.949Z,100.00
2022-12-29T07:05:08.441Z,100.00
2022-12-29T07:07:36.891Z,100.00
2022-12-29T07:10:06.054Z,100.00
2022-12-29T07:12:34.825Z,100.00
2022-12-29T07:15:17.235Z,100.00
2022-12-29T07:17:47.208Z,100.00
2022-12-29T07:20:15.695Z,100.00
2022-12-29T07:22:44.440Z,100.00
2022-12-29T07:25:12.917Z,100.00
2022-12-29T07:27:41.416Z,100.00
2022-12-29T07:30:11.701Z,100.00
2022-12-29T07:32:40.480Z,100.00
2022-12-29T07:35:10.989Z,100.00
2022-12-29T07:37:39.888Z,100.00
2022-12-29T07:40:12.404Z,100.00
2022-12-29T07:42:41.168Z,100.00
2022-12-29T07:45:15.107Z,100.00
2022-12-29T07:48:03.544Z,100.00
2022-12-29T07:50:33.543Z,100.00
2022-12-29T07:53:02.281Z,100.00
2022-12-29T07:55:30.938Z,100.00
2022-12-29T07:57:59.437Z,100.00
2022-12-29T08:00:28.314Z,100.00
2022-12-29T08:02:57.123Z,100.00
2022-12-29T08:05:25.681Z,100.00
2022-12-29T08:07:56.765Z,100.00
2022-12-29T08:10:25.991Z,100.00
2022-12-29T08:12:57.813Z,100.00
2022-12-29T08:15:32.541Z,100.00
2022-12-29T08:18:01.661Z,100.00
2022-12-29T08:20:30.032Z,100.00
2022-12-29T08:22:59.892Z,100.00
2022-12-29T08:25:28.369Z,100.00
2022-12-29T08:27:56.764Z,100.00
2022-12-29T08:30:25.816Z,100.00
2022-12-29T08:32:54.708Z,100.00
2022-12-29T08:35:23.251Z,100.00
2022-12-29T08:37:51.736Z,100.00
2022-12-29T08:40:21.560Z,100.00
2022-12-29T08:42:50.240Z,100.00
2022-12-29T08:45:18.870Z,100.00
2022-12-29T08:47:47.667Z,100.00
2022-12-29T08:50:16.369Z,100.00
2022-12-29T08:52:45.049Z,100.00
2022-12-29T08:55:13.471Z,100.00
2022-12-29T08:57:43.652Z,100.00
2022-12-29T09:00:18.809Z,100.00
2022-12-29T09:02:47.839Z,100.00
2022-12-29T09:05:16.668Z,100.00
2022-12-29T09:07:45.766Z,100.00
2022-12-29T09:10:14.331Z,100.00
2022-12-29T09:12:44.124Z,100.00
2022-12-29T09:15:13.909Z,100.00
2022-12-29T09:17:48.422Z,100.00
2022-12-29T09:20:19.819Z,100.00
2022-12-29T09:22:50.335Z,100.00
2022-12-29T09:25:21.679Z,100.00
2022-12-29T09:28:33.886Z,100.00
2022-12-29T09:31:03.656Z,100.00
2022-12-29T09:33:34.287Z,100.00
2022-12-29T09:36:03.205Z,100.00
2022-12-29T09:38:32.718Z,100.00
2022-12-29T09:41:10.548Z,100.00
2022-12-29T09:44:05.369Z,100.00
2022-12-29T09:46:43.083Z,100.00
2022-12-29T09:49:28.190Z,100.00
2022-12-29T09:52:05.682Z,100.00
2022-12-29T09:54:51.644Z,100.00
2022-12-29T09:57:32.355Z,100.00
2022-12-29T10:00:16.225Z,100.00
2022-12-29T10:02:51.092Z,100.00
2022-12-29T10:05:47.413Z,100.00
2022-12-29T10:08:37.989Z,100.00
2022-12-29T10:11:22.877Z,100.00
2022-12-29T10:14:19.852Z,100.00
2022-12-29T10:17:00.205Z,100.00
2022-12-29T10:19:50.646Z,100.00
2022-12-29T10:22:40.476Z,100.00
2022-12-29T10:25:20.785Z,100.00
2022-12-29T10:27:52.186Z,100.00
2022-12-29T10:30:21.210Z,100.00
2022-12-29T10:32:57.183Z,100.00
2022-12-29T10:35:31.977Z,100.00
2022-12-29T10:38:13.333Z,100.00
2022-12-29T10:40:47.535Z,100.00
2022-12-29T10:43:28.349Z,100.00
2022-12-29T10:46:01.425Z,100.00
2022-12-29T10:48:34.985Z,98.88
2022-12-29T10:51:10.333Z,99.26
2022-12-29T10:53:48.091Z,99.03
2022-12-29T10:56:31.805Z,98.28
2022-12-29T10:59:12.888Z,98.06
2022-12-29T11:02:00.365Z,96.84
2022-12-29T11:04:57.360Z,96.92
2022-12-29T11:07:27.796Z,95.89
2022-12-29T11:09:56.836Z,95.42
2022-12-29T11:12:29.577Z,95.45
2022-12-29T11:15:16.574Z,95.12
2022-12-29T11:17:51.242Z,94.08
2022-12-29T11:20:34.505Z,93.93
2022-12-29T11:23:05.123Z,94.03
2022-12-29T11:25:33.698Z,93.55
2022-12-29T11:28:14.369Z,93.58
2022-12-29T11:30:43.288Z,92.17
2022-12-29T11:33:12.435Z,89.88
2022-12-29T11:35:45.717Z,89.90
2022-12-29T11:38:23.953Z,87.29
2022-12-29T11:40:53.248Z,87.01
2022-12-29T11:43:30.869Z,87.01
2022-12-29T11:45:59.571Z,86.38
2022-12-29T11:48:35.573Z,84.58
2022-12-29T11:51:08.055Z,83.84
2022-12-29T11:53:46.261Z,83.80
2022-12-29T11:56:20.573Z,83.80
2022-12-29T11:58:50.485Z,82.52
2022-12-29T12:01:33.185Z,82.49
2022-12-29T12:04:08.443Z,82.27
2022-12-29T12:06:50.304Z,82.03
2022-12-29T12:09:29.663Z,81.72
2022-12-29T12:12:03.649Z,83.04
2022-12-29T12:14:40.737Z,83.47
2022-12-29T12:17:54.945Z,81.68
2022-12-29T12:20:29.986Z,82.30
2022-12-29T12:23:15.666Z,81.71
2022-12-29T12:25:59.948Z,81.34
2022-12-29T12:28:42.391Z,80.38
2022-12-29T12:31:33.285Z,81.56
2022-12-29T12:34:07.638Z,81.59
2022-12-29T12:37:21.647Z,82.74
2022-12-29T12:40:28.308Z,83.48
2022-12-29T12:43:17.708Z,83.81
2022-12-29T12:46:03.443Z,83.97
2022-12-29T12:48:54.644Z,84.04
2022-12-29T12:51:36.336Z,83.41
2022-12-29T12:54:26.977Z,82.88
2022-12-29T12:57:16.256Z,83.40
2022-12-29T13:00:04.022Z,83.56
2022-12-29T13:02:49.544Z,83.48
2022-12-29T13:05:59.601Z,84.16
2022-12-29T13:09:16.219Z,84.25
2022-12-29T13:12:09.827Z,84.22
2022-12-29T13:14:54.170Z,84.43
2022-12-29T13:17:50.625Z,84.67
2022-12-29T13:20:32.195Z,84.92
2022-12-29T13:23:13.391Z,85.12
2022-12-29T13:25:51.482Z,85.80
2022-12-29T13:28:31.465Z,85.70
2022-12-29T13:31:12.632Z,86.06
2022-12-29T13:33:53.643Z,86.42
2022-12-29T13:36:31.666Z,86.89
2022-12-29T13:39:18.985Z,87.98
2022-12-29T13:41:54.172Z,88.67
2022-12-29T13:44:36.457Z,88.03
2022-12-29T13:47:28.764Z,88.52
2022-12-29T13:50:01.621Z,88.79
2022-12-29T13:52:41.928Z,89.32
2022-12-29T13:55:29.739Z,89.53
2022-12-29T13:58:09.161Z,89.87
2022-12-29T14:00:58.889Z,89.90
2022-12-29T14:03:51.513Z,89.99
2022-12-29T14:06:26.681Z,89.69
2022-12-29T14:09:02.046Z,89.99
2022-12-29T14:11:38.021Z,90.28
2022-12-29T14:14:21.205Z,90.14
2022-12-29T14:16:52.134Z,89.92
2022-12-29T14:19:28.714Z,89.75
2022-12-29T14:22:01.864Z,90.37
2022-12-29T14:24:46.796Z,90.38
2022-12-29T14:27:55.566Z,89.86
2022-12-29T14:30:53.969Z,90.06
2022-12-29T14:33:30.723Z,89.96
2022-12-29T14:36:21.355Z,89.90
2022-12-29T14:38:51.857Z,89.81
2022-12-29T14:41:34.861Z,89.63
2022-12-29T14:44:19.318Z,89.45
2022-12-29T14:46:58.266Z,89.32
2022-12-29T14:49:30.525Z,89.03
2022-12-29T14:52:16.398Z,89.31
2022-12-29T14:54:53.943Z,90.11
2022-12-29T14:57:38.202Z,89.95
2022-12-29T15:00:21.063Z,90.78
2022-12-29T15:02:56.927Z,90.66
2022-12-29T15:05:39.585Z,91.02
2022-12-29T15:08:10.748Z,91.29
2022-12-29T15:10:50.412Z,91.64
2022-12-29T15:13:24.623Z,92.09
2022-12-29T15:15:53.813Z,91.09
2022-12-29T15:18:27.666Z,90.64
2022-12-29T15:20:59.860Z,90.16
2022-12-29T15:23:29.659Z,90.60
2022-12-29T15:26:03.236Z,90.80
2022-12-29T15:28:41.678Z,91.49
2022-12-29T15:31:16.523Z,91.99
2022-12-29T15:33:49.111Z,91.90
2022-12-29T15:36:42.895Z,91.82
2022-12-29T15:39:21.403Z,92.21
2022-12-29T15:42:01.882Z,92.74
2022-12-29T15:44:38.565Z,92.87
2022-12-29T15:47:22.544Z,93.25
2022-12-29T15:49:57.547Z,93.78
2022-12-29T15:52:34.935Z,94.06
2022-12-29T15:55:05.217Z,94.27
2022-12-29T15:57:45.041Z,94.40
2022-12-29T16:00:26.917Z,95.18
2022-12-29T16:02:59.130Z,96.62
2022-12-29T16:05:36.504Z,96.81
2022-12-29T16:08:23.095Z,97.31
2022-12-29T16:10:57.395Z,97.42
2022-12-29T16:13:39.832Z,97.49
2022-12-29T16:16:16.455Z,97.58
2022-12-29T16:18:50.618Z,97.58
2022-12-29T16:21:28.673Z,98.36
2022-12-29T16:24:05.272Z,99.15
2022-12-29T16:26:34.841Z,99.48
2022-12-29T16:29:09.512Z,98.84
2022-12-29T16:32:03.647Z,97.61
2022-12-29T16:34:45.386Z,96.57
2022-12-29T16:37:35.323Z,97.87
2022-12-29T16:40:31.540Z,98.82
2022-12-29T16:43:03.083Z,99.22
2022-12-29T16:46:28.891Z,98.40
2022-12-29T16:49:00.011Z,98.74
2022-12-29T16:51:36.347Z,99.46
2022-12-29T16:54:06.759Z,100.00
2022-12-29T16:56:39.962Z,100.00
2022-12-29T16:59:25.992Z,100.00
2022-12-29T17:01:58.756Z,100.00
2022-12-29T17:04:31.735Z,100.00
2022-12-29T17:07:00.496Z,100.00
2022-12-29T17:09:31.674Z,100.00
2022-12-29T17:12:10.665Z,100.00
2022-12-29T17:14:47.213Z,100.00
2022-12-29T17:17:24.119Z,100.00
2022-12-29T17:19:56.680Z,100.00
2022-12-29T17:22:41.006Z,100.00
2022-12-29T17:25:15.016Z,100.00
2022-12-29T17:27:48.405Z,100.00
2022-12-29T17:30:28.405Z,100.00
2022-12-29T17:33:06.647Z,100.00
2022-12-29T17:35:36.612Z,100.00
2022-12-29T17:38:07.163Z,100.00
2022-12-29T17:40:37.730Z,100.00
2022-12-29T17:43:07.721Z,100.00
2022-12-29T17:45:40.329Z,100.00
2022-12-29T17:48:14.713Z,99.29
2022-12-29T17:50:45.826Z,98.73
2022-12-29T17:53:22.698Z,98.69
2022-12-29T17:55:51.837Z,97.92
2022-12-29T17:58:25.196Z,97.22
2022-12-29T18:01:04.301Z,96.29
2022-12-29T18:03:39.073Z,96.66
2022-12-29T18:06:12.558Z,96.84
2022-12-29T18:08:44.086Z,97.73
2022-12-29T18:11:25.532Z,97.37
2022-12-29T18:13:55.179Z,97.41
2022-12-29T18:16:24.650Z,97.55
2022-12-29T18:18:54.683Z,97.58
2022-12-29T18:21:26.063Z,97.65
2022-12-29T18:23:54.737Z,96.60
2022-12-29T18:26:28.625Z,95.71
2022-12-29T18:28:58.644Z,95.36
2022-12-29T18:31:30.013Z,95.38
2022-12-29T18:34:03.142Z,95.61
2022-12-29T18:36:31.766Z,95.01
2022-12-29T18:39:00.323Z,95.27
2022-12-29T18:41:31.068Z,94.59
2022-12-29T18:44:00.324Z,94.68
2022-12-29T18:46:30.151Z,95.06
2022-12-29T18:49:00.412Z,94.37
2022-12-29T18:51:29.329Z,94.27
2022-12-29T18:53:58.908Z,94.51
2022-12-29T18:56:27.657Z,94.96
2022-12-29T18:58:56.962Z,95.45
2022-12-29T19:01:29.516Z,95.52
2022-12-29T19:03:59.779Z,95.13
2022-12-29T19:06:28.299Z,95.54
2022-12-29T19:08:56.888Z,96.06
2022-12-29T19:11:26.107Z,96.05
2022-12-29T19:13:54.693Z,96.51
2022-12-29T19:16:25.218Z,96.93
2022-12-29T19:19:08.435Z,97.16
2022-12-29T19:21:40.005Z,97.64
2022-12-29T19:24:09.273Z,98.63
2022-12-29T19:26:41.029Z,99.34
2022-12-29T19:29:16.981Z,99.79
2022-12-29T19:31:45.942Z,100.00
2022-12-29T19:34:16.284Z,100.00
2022-12-29T19:36:47.125Z,100.00
2022-12-29T19:39:16.284Z,100.00
2022-12-29T19:41:44.807Z,100.00
2022-12-29T19:44:13.719Z,100.00
2022-12-29T19:46:42.439Z,100.00
2022-12-29T19:49:11.207Z,100.00
2022-12-29T19:51:41.079Z,100.00
2022-12-29T19:54:13.578Z,100.00
2022-12-29T19:56:44.454Z,100.00
2022-12-29T19:59:13.279Z,100.00
2022-12-29T20:01:41.858Z,100.00
2022-12-29T20:04:10.565Z,100.00
2022-12-29T20:06:39.736Z,100.00
2022-12-29T20:09:08.409Z,100.00
2022-12-29T20:11:38.608Z,100.00
2022-12-29T20:14:08.130Z,100.00
2022-12-29T20:17:02.320Z,100.00
2022-12-29T20:19:30.447Z,100.00
2022-12-29T20:21:59.127Z,100.00
2022-12-29T20:24:27.828Z,100.00
2022-12-29T20:26:59.169Z,100.00
2022-12-29T20:29:28.253Z,100.00
2022-12-29T20:31:56.694Z,100.00
2022-12-29T20:34:25.323Z,100.00
2022-12-29T20:37:16.031Z,100.00
2022-12-29T20:39:45.625Z,100.00
2022-12-29T20:42:16.547Z,100.00
2022-12-29T20:44:45.093Z,100.00
2022-12-29T20:47:15.694Z,100.00
2022-12-29T20:49:44.410Z,100.00
2022-12-29T20:52:13.113Z,100.00
2022-12-29T20:54:41.831Z,100.00
2022-12-29T20:57:10.524Z,100.00
2022-12-29T20:59:40.620Z,100.00
2022-12-29T21:02:20.646Z,100.00
2022-12-29T21:07:38.204Z,100.00
2022-12-29T21:10:07.667Z,100.00
2022-12-29T21:12:36.278Z,100.00
2022-12-29T21:15:07.561Z,100.00
2022-12-29T21:17:36.240Z,100.00
2022-12-29T21:20:05.221Z,100.00
2022-12-29T21:22:33.777Z,100.00
2022-12-29T21:25:02.349Z,100.00
2022-12-29T21:27:30.916Z,100.00
2022-12-29T21:29:59.362Z,100.00
2022-12-29T21:32:29.164Z,100.00
2022-12-29T21:34:57.756Z,100.00
2022-12-29T21:37:26.739Z,100.00
2022-12-29T21:39:55.921Z,100.00
2022-12-29T21:42:24.561Z,100.00
2022-12-29T21:45:13.990Z,100.00
2022-12-29T21:48:04.030Z,100.00
2022-12-29T21:50:32.615Z,100.00
2022-12-29T21:53:01.640Z,100.00
2022-12-29T21:55:30.171Z,100.00
2022-12-29T21:58:16.186Z,100.00
2022-12-29T22:01:16.810Z,100.00
2022-12-29T22:04:04.495Z,100.00
2022-12-29T22:06:50.646Z,100.00
2022-12-29T22:09:43.248Z,100.00
2022-12-29T22:12:29.521Z,100.00
2022-12-29T22:14:58.122Z,100.00
2022-12-29T22:17:28.921Z,100.00
2022-12-29T22:20:00.318Z,100.00
2022-12-29T22:22:30.018Z,100.00
2022-12-29T22:24:59.016Z,100.00
2022-12-29T22:27:27.911Z,100.00
2022-12-29T22:29:56.356Z,100.00
2022-12-29T22:32:25.090Z,100.00
2022-12-29T22:34:54.063Z,100.00
2022-12-29T22:37:24.146Z,100.00
2022-12-29T22:39:52.927Z,100.00
2022-12-29T22:42:24.457Z,100.00
2022-12-29T22:44:53.060Z,100.00
2022-12-29T22:47:21.744Z,100.00
2022-12-29T22:49:52.439Z,100.00
2022-12-29T22:52:21.449Z,100.00
2022-12-29T22:54:58.183Z,100.00
2022-12-29T22:57:31.726Z,100.00
2022-12-29T23:00:00.864Z,100.00
2022-12-29T23:02:30.474Z,100.00
2022-12-29T23:05:04.411Z,100.00
2022-12-29T23:07:36.573Z,100.00
2022-12-29T23:10:07.917Z,100.00
2022-12-29T23:12:38.839Z,100.00
2022-12-29T23:15:08.959Z,100.00
2022-12-29T23:17:40.362Z,100.00
2022-12-29T23:20:10.291Z,100.00
2022-12-29T23:22:38.751Z,100.00
2022-12-29T23:25:10.039Z,100.00
2022-12-29T23:27:38.909Z,100.00
2022-12-29T23:30:09.202Z,100.00
2022-12-29T23:32:38.178Z,100.00
2022-12-29T23:35:07.534Z,100.00
2022-12-29T23:37:36.598Z,100.00
2022-12-29T23:40:07.349Z,100.00
2022-12-29T23:42:37.153Z,100.00
2022-12-29T23:45:07.069Z,100.00
2022-12-29T23:47:35.617Z,100.00
2022-12-29T23:50:04.522Z,100.00
2022-12-29T23:52:33.071Z,100.00
2022-12-29T23:55:01.587Z,100.00
2022-12-29T23:57:32.523Z,100.00
